createdAt,value
2022-12-24T00:00:07.556Z,44.28
2022-12-24T00:02:34.677Z,44.55
2022-12-24T00:05:01.800Z,44.72
2022-12-24T00:07:29.565Z,43.72
2022-12-24T00:09:56.500Z,45.75
2022-12-24T00:12:23.627Z,44.55
2022-12-24T00:14:50.361Z,42.58
2022-12-24T00:17:17.276Z,43.75
2022-12-24T00:19:44.098Z,45.13
2022-12-24T00:22:10.871Z,45.08
2022-12-24T00:24:37.847Z,44.60
2022-12-24T00:27:05.970Z,45.38
2022-12-24T00:29:33.789Z,43.88
2022-12-24T00:32:00.736Z,43.83
2022-12-24T00:34:27.837Z,40.25
2022-12-24T00:36:54.689Z,41.05
2022-12-24T00:39:21.580Z,42.47
2022-12-24T00:41:48.416Z,42.20
2022-12-24T00:44:15.248Z,42.22
2022-12-24T00:46:42.632Z,41.45
2022-12-24T00:49:11.559Z,44.05
2022-12-24T00:51:38.631Z,42.63
2022-12-24T00:54:06.060Z,43.65
2022-12-24T00:56:33.543Z,43.42
2022-12-24T00:59:00.344Z,41.50
2022-12-24T01:01:27.970Z,42.97
2022-12-24T01:04:15.341Z,40.88
2022-12-24T01:06:42.112Z,43.70
2022-12-24T01:09:08.964Z,44.40
2022-12-24T01:11:35.885Z,42.30
2022-12-24T01:14:02.761Z,42.75
2022-12-24T01:16:29.594Z,40.58
2022-12-24T01:18:56.444Z,40.75
2022-12-24T01:21:23.261Z,41.25
2022-12-24T01:23:50.033Z,40.75
2022-12-24T01:26:16.922Z,42.65
2022-12-24T01:28:43.711Z,38.25
2022-12-24T01:31:16.206Z,42.10
2022-12-24T01:33:44.030Z,39.63
2022-12-24T01:36:12.159Z,39.92
2022-12-24T01:38:39.508Z,40.45
2022-12-24T01:41:25.072Z,39.55
2022-12-24T01:43:51.906Z,41.13
2022-12-24T01:46:29.439Z,40.65
2022-12-24T01:49:02.532Z,38.35
2022-12-24T01:51:42.831Z,41.05
2022-12-24T01:54:17.424Z,39.28
2022-12-24T01:57:03.655Z,40.20
2022-12-24T02:01:57.953Z,38.00
2022-12-24T02:04:42.861Z,40.45
2022-12-24T02:07:09.823Z,39.95
2022-12-24T02:09:37.137Z,40.72
2022-12-24T02:12:06.058Z,38.60
2022-12-24T02:14:34.066Z,39.72
2022-12-24T02:17:39.489Z,41.30
2022-12-24T02:20:27.747Z,38.58
2022-12-24T02:23:03.189Z,39.80
2022-12-24T02:26:00.278Z,39.28
2022-12-24T02:28:45.965Z,39.65
2022-12-24T02:31:20.694Z,37.97
2022-12-24T02:34:07.910Z,38.25
2022-12-24T02:36:49.856Z,37.72
2022-12-24T02:39:27.345Z,37.83
2022-12-24T02:42:06.915Z,38.72
2022-12-24T02:44:42.743Z,38.55
2022-12-24T02:47:11.191Z,37.97
2022-12-24T02:49:38.578Z,37.20
2022-12-24T02:52:05.547Z,36.38
2022-12-24T02:54:32.982Z,37.65
2022-12-24T02:57:23.316Z,38.42
2022-12-24T03:00:00.667Z,37.30
2022-12-24T03:02:58.406Z,37.30
2022-12-24T03:05:31.195Z,36.10
2022-12-24T03:08:06.598Z,39.50
2022-12-24T03:10:56.332Z,38.67
2022-12-24T03:13:24.569Z,37.85
2022-12-24T03:15:52.184Z,36.35
2022-12-24T03:18:23.436Z,35.65
2022-12-24T03:21:00.688Z,36.70
2022-12-24T03:23:28.078Z,37.30
2022-12-24T03:25:55.161Z,36.55
2022-12-24T03:28:27.169Z,37.97
2022-12-24T03:30:54.734Z,40.45
2022-12-24T03:33:21.631Z,39.17
2022-12-24T03:35:48.647Z,38.10
2022-12-24T03:38:15.427Z,37.42
2022-12-24T03:40:42.190Z,37.10
2022-12-24T03:43:08.961Z,36.25
2022-12-24T03:45:35.828Z,35.95
2022-12-24T03:48:02.665Z,36.00
2022-12-24T03:50:29.439Z,35.47
2022-12-24T03:52:56.290Z,35.38
2022-12-24T03:55:23.579Z,38.10
2022-12-24T03:57:50.723Z,36.30
2022-12-24T04:00:18.108Z,36.30
2022-12-24T04:02:45.034Z,37.67
2022-12-24T04:05:15.721Z,36.90
2022-12-24T04:07:42.483Z,36.03
2022-12-24T04:10:10.175Z,39.28
2022-12-24T04:12:38.123Z,40.47
2022-12-24T04:15:05.410Z,37.28
2022-12-24T04:17:32.843Z,36.10
2022-12-24T04:19:59.697Z,38.00
2022-12-24T04:22:26.738Z,37.47
2022-12-24T04:24:53.495Z,38.38
2022-12-24T04:27:22.043Z,36.65
2022-12-24T04:29:52.025Z,38.72
2022-12-24T04:32:18.841Z,37.05
2022-12-24T04:34:45.647Z,39.90
2022-12-24T04:37:13.011Z,38.20
2022-12-24T04:39:39.793Z,35.83
2022-12-24T04:42:06.614Z,38.00
2022-12-24T04:44:33.354Z,37.72
2022-12-24T04:47:00.152Z,35.55
2022-12-24T04:49:26.985Z,38.03
2022-12-24T04:51:53.775Z,36.28
2022-12-24T04:54:21.024Z,37.05
2022-12-24T04:56:47.831Z,35.85
2022-12-24T04:59:15.273Z,36.35
2022-12-24T05:01:42.155Z,38.13
2022-12-24T05:04:09.843Z,39.35
2022-12-24T05:06:39.107Z,37.92
2022-12-24T05:09:05.918Z,36.45
2022-12-24T05:11:32.732Z,37.83
2022-12-24T05:13:59.540Z,38.22
2022-12-24T05:16:26.540Z,39.08
2022-12-24T05:18:54.354Z,38.05
2022-12-24T05:21:23.337Z,39.28
2022-12-24T05:24:09.332Z,37.38
2022-12-24T05:26:49.639Z,39.55
2022-12-24T05:29:16.724Z,39.28
2022-12-24T05:31:45.206Z,36.50
2022-12-24T05:34:13.816Z,35.03
2022-12-24T05:36:41.074Z,37.97
2022-12-24T05:39:13.498Z,37.13
2022-12-24T05:41:42.481Z,37.80
2022-12-24T05:44:09.292Z,38.08
2022-12-24T05:46:36.200Z,38.40
2022-12-24T05:49:03.054Z,37.03
2022-12-24T05:51:29.807Z,38.05
2022-12-24T05:53:56.592Z,38.58
2022-12-24T05:56:24.626Z,38.95
2022-12-24T05:58:53.579Z,37.88
2022-12-24T06:01:22.285Z,38.92
2022-12-24T06:03:51.959Z,35.35
2022-12-24T06:06:22.249Z,35.63
2022-12-24T06:08:50.552Z,37.10
2022-12-24T06:11:19.976Z,34.42
2022-12-24T06:13:46.870Z,35.72
2022-12-24T06:16:17.372Z,39.28
2022-12-24T06:18:44.681Z,36.63
2022-12-24T06:21:12.322Z,39.47
2022-12-24T06:23:40.747Z,37.40
2022-12-24T06:26:09.206Z,36.95
2022-12-24T06:28:37.985Z,38.65
2022-12-24T06:31:06.084Z,39.45
2022-12-24T06:33:34.460Z,40.80
2022-12-24T06:36:01.944Z,39.65
2022-12-24T06:38:31.248Z,40.78
2022-12-24T06:40:58.336Z,41.63
2022-12-24T06:43:25.429Z,45.92
2022-12-24T06:45:53.508Z,41.42
2022-12-24T06:48:20.312Z,40.95
2022-12-24T06:50:47.137Z,39.10
2022-12-24T06:53:13.929Z,38.33
2022-12-24T06:55:41.232Z,40.95
2022-12-24T06:58:07.991Z,39.70
2022-12-24T07:00:34.765Z,38.70
2022-12-24T07:03:01.682Z,40.60
2022-12-24T07:05:28.560Z,38.55
2022-12-24T07:07:55.629Z,38.20
2022-12-24T07:10:22.756Z,43.40
2022-12-24T07:12:49.674Z,46.30
2022-12-24T07:15:17.033Z,43.53
2022-12-24T07:17:44.163Z,39.78
2022-12-24T07:20:14.729Z,41.97
2022-12-24T07:22:42.044Z,48.47
2022-12-24T07:25:09.778Z,41.97
2022-12-24T07:27:37.160Z,39.97
2022-12-24T07:30:05.441Z,38.28
2022-12-24T07:32:32.424Z,39.50
2022-12-24T07:34:59.193Z,39.08
2022-12-24T07:37:26.330Z,38.03
2022-12-24T07:39:53.127Z,39.60
2022-12-24T07:42:20.062Z,38.70
2022-12-24T07:44:48.144Z,40.15
2022-12-24T07:47:15.249Z,40.70
2022-12-24T07:49:42.020Z,39.22
2022-12-24T07:52:08.785Z,36.05
2022-12-24T07:54:35.618Z,38.92
2022-12-24T07:57:02.346Z,39.28
2022-12-24T07:59:29.087Z,37.70
2022-12-24T08:01:55.994Z,38.63
2022-12-24T08:04:22.817Z,38.47
2022-12-24T08:06:49.979Z,38.67
2022-12-24T08:09:17.020Z,38.95
2022-12-24T08:11:51.318Z,37.17
2022-12-24T08:14:18.641Z,37.75
2022-12-24T08:16:45.426Z,38.63
2022-12-24T08:19:12.263Z,38.63
2022-12-24T08:21:39.067Z,40.35
2022-12-24T08:24:06.326Z,38.25
2022-12-24T08:26:33.110Z,40.03
2022-12-24T08:28:59.945Z,40.33
2022-12-24T08:31:26.816Z,40.05
2022-12-24T08:33:53.687Z,41.42
2022-12-24T08:36:20.567Z,41.45
2022-12-24T08:38:47.460Z,41.42
2022-12-24T08:41:14.192Z,42.47
2022-12-24T08:43:40.943Z,40.72
2022-12-24T08:46:07.762Z,42.00
2022-12-24T08:48:35.193Z,41.22
2022-12-24T08:51:09.544Z,41.72
2022-12-24T08:53:36.740Z,40.65
2022-12-24T08:56:05.207Z,41.05
2022-12-24T08:58:32.734Z,40.08
2022-12-24T09:01:00.254Z,39.75
2022-12-24T09:03:28.183Z,41.53
2022-12-24T09:05:55.438Z,46.92
2022-12-24T09:08:22.468Z,49.10
2022-12-24T09:10:49.247Z,47.88
2022-12-24T09:13:16.041Z,49.75
2022-12-24T09:15:42.790Z,49.17
2022-12-24T09:18:10.606Z,48.53
2022-12-24T09:20:39.462Z,53.28
2022-12-24T09:23:08.264Z,57.42
2022-12-24T09:25:35.013Z,55.35
2022-12-24T09:28:01.945Z,54.08
2022-12-24T09:30:28.651Z,53.30
2022-12-24T09:32:55.382Z,48.65
2022-12-24T09:35:22.268Z,44.58
2022-12-24T09:38:02.667Z,44.03
2022-12-24T09:40:40.067Z,45.55
2022-12-24T09:43:17.122Z,46.25
2022-12-24T09:46:00.746Z,46.55
2022-12-24T09:48:34.114Z,46.85
2022-12-24T09:51:09.013Z,45.90
2022-12-24T09:53:50.308Z,44.88
2022-12-24T09:56:28.172Z,43.10
2022-12-24T09:58:59.660Z,44.60
2022-12-24T10:01:30.265Z,43.53
2022-12-24T10:04:04.769Z,45.40
2022-12-24T10:06:47.726Z,45.50
2022-12-24T10:09:41.032Z,53.70
2022-12-24T10:12:35.920Z,60.95
2022-12-24T10:15:20.662Z,55.50
2022-12-24T10:18:16.860Z,53.92
2022-12-24T10:20:54.777Z,45.50
2022-12-24T10:23:34.303Z,43.92
2022-12-24T10:26:08.302Z,44.78
2022-12-24T10:28:55.032Z,48.72
2022-12-24T10:31:27.487Z,47.30
2022-12-24T10:34:02.107Z,47.50
2022-12-24T10:36:31.573Z,50.45
2022-12-24T10:38:58.958Z,54.65
2022-12-24T10:41:27.846Z,55.80
2022-12-24T10:43:55.577Z,52.22
2022-12-24T10:46:28.200Z,51.83
2022-12-24T10:49:04.062Z,49.28
2022-12-24T10:54:10.830Z,48.70
2022-12-24T10:56:43.281Z,51.00
2022-12-24T10:59:43.535Z,48.90
2022-12-24T11:02:38.028Z,48.60
2022-12-24T11:05:10.213Z,48.17
2022-12-24T11:07:36.917Z,49.15
2022-12-24T11:10:08.335Z,49.53
2022-12-24T11:13:00.314Z,49.13
2022-12-24T11:15:35.184Z,51.55
2022-12-24T11:18:13.362Z,47.40
2022-12-24T11:20:40.921Z,45.78
2022-12-24T11:23:16.932Z,43.38
2022-12-24T11:28:28.092Z,43.03
2022-12-24T11:31:05.311Z,43.22
2022-12-24T11:33:46.088Z,46.08
2022-12-24T11:36:14.129Z,51.03
2022-12-24T11:38:41.038Z,50.20
2022-12-24T11:41:11.957Z,46.45
2022-12-24T11:43:47.935Z,43.63
2022-12-24T11:48:44.639Z,42.63
2022-12-24T11:51:27.806Z,46.15
2022-12-24T11:54:07.300Z,42.28
2022-12-24T11:56:49.020Z,42.70
2022-12-24T11:59:26.139Z,48.63
2022-12-24T12:02:02.391Z,51.53
2022-12-24T12:04:33.090Z,51.05
2022-12-24T12:07:02.068Z,50.10
2022-12-24T12:09:31.516Z,51.72
2022-12-24T12:12:13.387Z,50.05
2022-12-24T12:14:46.623Z,56.33
2022-12-24T12:17:40.217Z,57.83
2022-12-24T12:20:28.148Z,53.10
2022-12-24T12:22:57.773Z,49.03
2022-12-24T12:25:43.042Z,45.40
2022-12-24T12:28:20.422Z,45.92
2022-12-24T12:30:55.785Z,46.80
2022-12-24T12:33:40.104Z,44.13
2022-12-24T12:36:10.443Z,44.72
2022-12-24T12:38:37.413Z,48.25
2022-12-24T12:41:05.125Z,49.45
2022-12-24T12:43:53.869Z,48.50
2022-12-24T12:46:41.923Z,49.58
2022-12-24T12:49:27.597Z,50.70
2022-12-24T12:52:32.933Z,50.13
2022-12-24T12:55:29.734Z,51.53
2022-12-24T12:58:03.143Z,52.17
2022-12-24T13:00:36.568Z,52.17
2022-12-24T13:03:15.358Z,51.17
2022-12-24T13:05:48.104Z,51.50
2022-12-24T13:08:52.694Z,52.55
2022-12-24T13:12:07.047Z,56.03
2022-12-24T13:14:51.790Z,58.17
2022-12-24T13:17:57.387Z,58.13
2022-12-24T13:20:32.525Z,64.78
2022-12-24T13:23:10.730Z,67.20
2022-12-24T13:25:38.731Z,72.30
2022-12-24T13:28:23.689Z,74.00
2022-12-24T13:31:22.940Z,80.40
2022-12-24T13:33:51.883Z,77.40
2022-12-24T13:36:20.410Z,83.78
2022-12-24T13:38:51.393Z,82.07
2022-12-24T13:41:38.607Z,76.80
2022-12-24T13:44:07.232Z,75.40
2022-12-24T13:46:49.107Z,77.15
2022-12-24T13:49:26.198Z,73.03
2022-12-24T13:52:10.932Z,73.55
2022-12-24T13:54:43.914Z,72.93
2022-12-24T13:57:38.359Z,71.53
2022-12-24T14:00:20.571Z,68.68
2022-12-24T14:02:56.391Z,67.03
2022-12-24T14:07:57.558Z,70.25
2022-12-24T14:10:30.301Z,71.47
2022-12-24T14:12:57.051Z,72.55
2022-12-24T14:15:45.593Z,75.13
2022-12-24T14:18:21.557Z,76.30
2022-12-24T14:23:44.746Z,76.53
2022-12-24T14:26:18.949Z,76.00
2022-12-24T14:28:56.307Z,77.82
2022-12-24T14:31:23.653Z,76.80
2022-12-24T14:33:50.696Z,77.88
2022-12-24T14:36:23.456Z,80.30
2022-12-24T14:38:50.583Z,82.28
2022-12-24T14:41:35.626Z,79.20
2022-12-24T14:44:28.547Z,78.90
2022-12-24T14:47:15.453Z,78.57
2022-12-24T14:50:00.315Z,76.40
2022-12-24T14:55:43.140Z,73.40
2022-12-24T14:58:30.818Z,78.13
2022-12-24T15:01:22.775Z,81.55
2022-12-24T15:04:10.714Z,76.55
2022-12-24T15:06:41.525Z,77.25
2022-12-24T15:09:25.249Z,77.10
2022-12-24T15:11:55.352Z,78.45
2022-12-24T15:14:25.063Z,76.32
2022-12-24T15:16:54.806Z,76.30
2022-12-24T15:19:35.913Z,74.35
2022-12-24T15:22:04.234Z,75.75
2022-12-24T15:24:36.748Z,73.75
2022-12-24T15:27:17.597Z,72.68
2022-12-24T15:29:46.714Z,71.47
2022-12-24T15:32:15.452Z,71.28
2022-12-24T15:34:47.560Z,74.28
2022-12-24T15:37:28.176Z,69.45
2022-12-24T15:40:04.035Z,73.30
2022-12-24T15:42:31.130Z,73.00
2022-12-24T15:45:18.051Z,75.82
2022-12-24T15:47:58.385Z,72.45
2022-12-24T15:50:34.900Z,69.35
2022-12-24T15:53:19.842Z,70.80
2022-12-24T15:56:04.962Z,71.60
2022-12-24T15:58:43.383Z,71.22
2022-12-24T16:01:13.021Z,73.85
2022-12-24T16:03:51.856Z,74.80
2022-12-24T16:06:18.955Z,73.57
2022-12-24T16:08:46.782Z,71.03
2022-12-24T16:11:24.270Z,71.40
2022-12-24T16:13:51.053Z,71.22
2022-12-24T16:16:30.447Z,75.93
2022-12-24T16:19:01.121Z,79.20
2022-12-24T16:21:32.962Z,76.43
2022-12-24T16:24:12.820Z,77.72
2022-12-24T16:26:40.355Z,76.82
2022-12-24T16:29:07.672Z,72.68
2022-12-24T16:32:00.133Z,75.32
2022-12-24T16:34:31.608Z,77.78
2022-12-24T16:36:59.918Z,81.00
2022-12-24T16:39:33.830Z,83.47
2022-12-24T16:42:21.327Z,81.38
2022-12-24T16:44:48.445Z,81.28
2022-12-24T16:47:25.500Z,80.30
2022-12-24T16:49:52.697Z,76.88
2022-12-24T16:52:22.391Z,77.13
2022-12-24T16:54:49.980Z,76.93
2022-12-24T16:57:17.101Z,64.55
2022-12-24T16:59:43.876Z,70.07
2022-12-24T17:02:18.545Z,76.65
2022-12-24T17:04:45.947Z,83.10
2022-12-24T17:07:14.662Z,82.35
2022-12-24T17:09:41.798Z,79.90
2022-12-24T17:12:08.754Z,78.20
2022-12-24T17:14:35.728Z,80.68
2022-12-24T17:17:02.536Z,79.97
2022-12-24T17:19:29.287Z,77.75
2022-12-24T17:21:56.027Z,79.38
2022-12-24T17:24:22.797Z,77.55
2022-12-24T17:26:49.554Z,77.75
2022-12-24T17:29:16.323Z,74.18
2022-12-24T17:31:43.222Z,75.88
2022-12-24T17:34:10.275Z,76.72
2022-12-24T17:36:37.018Z,74.15
2022-12-24T17:39:03.970Z,70.25
2022-12-24T17:41:30.812Z,69.40
2022-12-24T17:43:58.938Z,63.28
2022-12-24T17:46:25.929Z,62.83
2022-12-24T17:48:53.069Z,62.85
2022-12-24T17:51:23.367Z,69.93
2022-12-24T17:53:50.383Z,78.28
2022-12-24T17:56:17.698Z,81.45
2022-12-24T17:58:45.973Z,80.05
2022-12-24T18:01:18.597Z,81.95
2022-12-24T18:03:46.661Z,79.18
2022-12-24T18:06:14.043Z,78.82
2022-12-24T18:08:42.309Z,62.63
2022-12-24T18:11:23.123Z,65.35
2022-12-24T18:13:50.856Z,66.80
2022-12-24T18:16:23.371Z,65.70
2022-12-24T18:18:51.079Z,57.97
2022-12-24T18:21:19.438Z,58.20
2022-12-24T18:23:48.202Z,57.78
2022-12-24T18:26:16.144Z,59.53
2022-12-24T18:28:43.209Z,61.97
2022-12-24T18:31:13.781Z,61.05
2022-12-24T18:33:41.098Z,59.42
2022-12-24T18:36:08.666Z,61.40
2022-12-24T18:38:35.950Z,61.83
2022-12-24T18:41:07.681Z,66.45
2022-12-24T18:43:34.567Z,66.72
2022-12-24T18:46:07.907Z,63.03
2022-12-24T18:48:35.044Z,64.22
2022-12-24T18:51:02.745Z,65.80
2022-12-24T18:53:29.529Z,70.97
2022-12-24T18:55:56.397Z,65.63
2022-12-24T18:58:23.152Z,68.13
2022-12-24T19:00:49.969Z,64.47
2022-12-24T19:03:17.137Z,66.47
2022-12-24T19:05:43.934Z,64.65
2022-12-24T19:08:37.731Z,64.53
2022-12-24T19:10:57.733Z,64.00
2022-12-24T19:13:24.875Z,62.72
2022-12-24T19:15:51.767Z,58.78
2022-12-24T19:18:18.518Z,67.70
2022-12-24T19:20:45.344Z,64.50
2022-12-24T19:23:12.141Z,63.15
2022-12-24T19:25:39.059Z,66.75
2022-12-24T19:28:08.790Z,66.15
2022-12-24T19:30:40.480Z,66.65
2022-12-24T19:33:07.239Z,67.03
2022-12-24T19:35:34.112Z,65.63
2022-12-24T19:38:01.154Z,66.53
2022-12-24T19:40:28.177Z,69.78
2022-12-24T19:42:55.048Z,66.32
2022-12-24T19:45:22.877Z,70.28
2022-12-24T19:47:51.486Z,73.88
2022-12-24T19:50:19.407Z,72.10
2022-12-24T19:52:46.930Z,71.38
2022-12-24T19:55:15.117Z,86.93
2022-12-24T19:57:42.025Z,73.82
2022-12-24T20:00:10.397Z,71.05
2022-12-24T20:02:37.458Z,71.50
2022-12-24T20:05:04.791Z,71.18
2022-12-24T20:07:31.917Z,69.88
2022-12-24T20:09:58.696Z,72.45
2022-12-24T20:12:25.571Z,76.25
2022-12-24T20:14:56.421Z,80.85
2022-12-24T20:17:23.470Z,80.72
2022-12-24T20:19:50.313Z,85.72
2022-12-24T20:22:17.031Z,86.22
2022-12-24T20:24:43.849Z,86.15
2022-12-24T20:27:11.707Z,87.22
2022-12-24T20:29:38.465Z,79.93
2022-12-24T20:32:05.673Z,81.88
2022-12-24T20:34:32.586Z,82.43
2022-12-24T20:36:59.329Z,80.07
2022-12-24T20:39:26.139Z,80.38
2022-12-24T20:41:52.937Z,79.35
2022-12-24T20:44:19.806Z,75.97
2022-12-24T20:46:46.661Z,76.28
2022-12-24T20:49:13.541Z,80.30
2022-12-24T20:51:40.295Z,75.22
2022-12-24T20:54:07.046Z,75.50
2022-12-24T20:56:33.867Z,75.32
2022-12-24T20:59:01.745Z,78.45
2022-12-24T21:01:29.239Z,79.93
2022-12-24T21:03:58.653Z,78.50
2022-12-24T21:06:25.785Z,85.40
2022-12-24T21:08:53.724Z,80.35
2022-12-24T21:11:39.861Z,83.82
2022-12-24T21:14:07.331Z,86.85
2022-12-24T21:16:35.283Z,86.57
2022-12-24T21:19:02.343Z,86.88
2022-12-24T21:21:29.180Z,86.35
2022-12-24T21:23:55.991Z,86.10
2022-12-24T21:26:22.894Z,80.22
2022-12-24T21:28:50.480Z,82.95
2022-12-24T21:31:17.631Z,82.90
2022-12-24T21:33:44.625Z,77.88
2022-12-24T21:36:14.272Z,82.20
2022-12-24T21:38:41.079Z,75.43
2022-12-24T21:41:17.257Z,91.05
2022-12-24T21:43:45.126Z,75.13
2022-12-24T21:46:15.425Z,86.40
2022-12-24T21:49:01.264Z,75.05
2022-12-24T21:51:28.408Z,72.90
2022-12-24T21:54:14.342Z,77.90
2022-12-24T21:56:59.880Z,71.85
2022-12-24T21:59:27.530Z,75.33
2022-12-24T22:01:55.079Z,71.78
2022-12-24T22:04:22.307Z,78.38
2022-12-24T22:07:07.656Z,75.70
2022-12-24T22:09:53.829Z,82.78
2022-12-24T22:12:20.766Z,80.55
2022-12-24T22:14:47.735Z,79.10
2022-12-24T22:17:18.206Z,77.35
2022-12-24T22:19:48.183Z,74.25
2022-12-24T22:22:15.009Z,72.22
2022-12-24T22:24:41.785Z,72.40
2022-12-24T22:27:08.564Z,74.68
2022-12-24T22:29:35.369Z,74.95
2022-12-24T22:32:02.309Z,75.60
2022-12-24T22:34:29.183Z,70.30
2022-12-24T22:36:55.955Z,66.55
2022-12-24T22:39:22.699Z,76.55
2022-12-24T22:41:52.754Z,72.97
2022-12-24T22:44:19.593Z,72.03
2022-12-24T22:46:46.505Z,72.90
2022-12-24T22:49:13.388Z,60.70
2022-12-24T22:51:40.157Z,65.35
2022-12-24T22:54:07.047Z,64.70
2022-12-24T22:56:40.415Z,65.65
2022-12-24T22:59:09.554Z,61.17
2022-12-24T23:01:38.870Z,66.90
2022-12-24T23:04:07.299Z,66.60
2022-12-24T23:06:34.969Z,59.55
2022-12-24T23:09:02.696Z,58.88
2022-12-24T23:11:29.652Z,58.13
2022-12-24T23:14:15.279Z,55.65
2022-12-24T23:16:42.154Z,57.87
2022-12-24T23:19:09.757Z,57.22
2022-12-24T23:21:38.519Z,59.33
2022-12-24T23:24:05.770Z,58.45
2022-12-24T23:26:32.546Z,55.05
2022-12-24T23:28:59.429Z,52.97
2022-12-24T23:31:27.023Z,55.25
2022-12-24T23:33:54.046Z,55.53
2022-12-24T23:36:21.289Z,52.38
2022-12-24T23:38:48.579Z,57.85
2022-12-24T23:41:18.848Z,59.10
2022-12-24T23:43:46.039Z,52.60
2022-12-24T23:46:14.914Z,50.58
2022-12-24T23:48:42.157Z,49.90
2022-12-24T23:51:13.466Z,54.00
2022-12-24T23:53:40.283Z,48.80
2022-12-24T23:56:08.127Z,50.90
2022-12-24T23:58:35.136Z,52.42
